Terminal Aerodrome Forecast
Issued by NWS

Home | Current Version | Previous Version | Text Only | Print | Product List | Glossary On
Versions: 1 2 3 4 5 6 7 8 9 10 11 12 13 14 15 16 17 18 19 20
461
FTAK31 PAJN 091737
TAFAJN
TAF
PAJN 091737Z 0918/1018 VRB05KT P6SM VCFG SKC
      TEMPO 0918/0920 6SM BR FEW001
     FM092000 VRB04KT P6SM SCT200
     FM100200 12010KT P6SM BKN060 BKN100 WS020/07025KT
     FM101200 10012G20KT 4SM -RA BKN025 OVC040=

USA.gov is the U.S. government's official web portal to all federal, state and local government web resources and services.